sensor_id;sensor_type;location;lat;lon;timestamp;pressure;altitude;pressure_sealevel;temperature;humidity
23164;BME280;31429;42.674;23.350;2024-02-26T00:00:24;94265.34;;;7.89;100.00
23164;BME280;31429;42.674;23.350;2024-02-26T00:01:25;94263.25;;;7.75;100.00
23164;BME280;31429;42.674;23.350;2024-02-26T00:02:26;94265.19;;;7.69;100.00
23164;BME280;31429;42.674;23.350;2024-02-26T00:03:27;94275.59;;;7.63;100.00
23164;BME280;31429;42.674;23.350;2024-02-26T00:04:28;94266.34;;;7.60;100.00
23164;BME280;31429;42.674;23.350;2024-02-26T00:05:28;94268.72;;;7.65;100.00
23164;BME280;31429;42.674;23.350;2024-02-26T00:06:29;94269.28;;;7.73;100.00
23164;BME280;31429;42.674;23.350;2024-02-26T00:07:30;94260.66;;;7.77;100.00
23164;BME280;31429;42.674;23.350;2024-02-26T00:08:31;94267.38;;;7.79;100.00
23164;BME280;31429;42.674;23.350;2024-02-26T00:09:33;94262.06;;;7.85;100.00
23164;BME280;31429;42.674;23.350;2024-02-26T00:10:36;94256.13;;;7.85;100.00
23164;BME280;31429;42.674;23.350;2024-02-26T00:11:37;94252.63;;;7.89;100.00
23164;BME280;31429;42.674;23.350;2024-02-26T00:12:38;94249.28;;;7.87;100.00
23164;BME280;31429;42.674;23.350;2024-02-26T00:13:39;94249.13;;;7.91;100.00
23164;BME280;31429;42.674;23.350;2024-02-26T00:14:40;94246.00;;;7.83;100.00
23164;BME280;31429;42.674;23.350;2024-02-26T00:16:01;94252.28;;;7.75;100.00
23164;BME280;31429;42.674;23.350;2024-02-26T00:17:02;94253.25;;;7.71;100.00
23164;BME280;31429;42.674;23.350;2024-02-26T00:18:03;94250.75;;;7.69;100.00
23164;BME280;31429;42.674;23.350;2024-02-26T00:19:04;94254.13;;;7.70;100.00
23164;BME280;31429;42.674;23.350;2024-02-26T00:20:05;94256.19;;;7.83;100.00
23164;BME280;31429;42.674;23.350;2024-02-26T00:21:09;94255.16;;;7.89;100.00
23164;BME280;31429;42.674;23.350;2024-02-26T00:22:09;94253.38;;;7.91;100.00
23164;BME280;31429;42.674;23.350;2024-02-26T00:23:10;94249.78;;;7.96;100.00
23164;BME280;31429;42.674;23.350;2024-02-26T00:24:11;94250.66;;;7.95;100.00
23164;BME280;31429;42.674;23.350;2024-02-26T00:25:13;94247.34;;;7.93;100.00
23164;BME280;31429;42.674;23.350;2024-02-26T00:26:14;94245.78;;;7.89;100.00
23164;BME280;31429;42.674;23.350;2024-02-26T00:27:15;94245.75;;;7.91;100.00
23164;BME280;31429;42.674;23.350;2024-02-26T00:28:16;94246.78;;;7.85;100.00
23164;BME280;31429;42.674;23.350;2024-02-26T00:29:17;94244.69;;;7.73;100.00
23164;BME280;31429;42.674;23.350;2024-02-26T00:30:18;94244.00;;;7.68;100.00
23164;BME280;31429;42.674;23.350;2024-02-26T00:31:18;94247.50;;;7.66;100.00
23164;BME280;31429;42.674;23.350;2024-02-26T00:32:19;94239.06;;;7.64;100.00
23164;BME280;31429;42.674;23.350;2024-02-26T00:33:20;94250.03;;;7.66;100.00
23164;BME280;31429;42.674;23.350;2024-02-26T00:34:20;94238.72;;;7.74;100.00
23164;BME280;31429;42.674;23.350;2024-02-26T00:35:21;94240.03;;;7.84;100.00
23164;BME280;31429;42.674;23.350;2024-02-26T00:36:22;94234.72;;;7.90;100.00
23164;BME280;31429;42.674;23.350;2024-02-26T00:37:23;94228.97;;;7.85;100.00
23164;BME280;31429;42.674;23.350;2024-02-26T00:38:23;94235.78;;;7.85;100.00
23164;BME280;31429;42.674;23.350;2024-02-26T00:39:24;94228.06;;;7.86;100.00
23164;BME280;31429;42.674;23.350;2024-02-26T00:40:26;94226.34;;;7.88;100.00
23164;BME280;31429;42.674;23.350;2024-02-26T00:41:27;94227.00;;;7.93;100.00
23164;BME280;31429;42.674;23.350;2024-02-26T00:42:28;94225.16;;;7.97;100.00
23164;BME280;31429;42.674;23.350;2024-02-26T00:43:29;94220.84;;;7.99;100.00
23164;BME280;31429;42.674;23.350;2024-02-26T00:44:30;94229.25;;;8.01;100.00
23164;BME280;31429;42.674;23.350;2024-02-26T00:45:30;94217.91;;;8.09;100.00
23164;BME280;31429;42.674;23.350;2024-02-26T00:46:32;94215.19;;;8.14;100.00
23164;BME280;31429;42.674;23.350;2024-02-26T00:47:33;94214.91;;;8.22;100.00
23164;BME280;31429;42.674;23.350;2024-02-26T00:48:34;94214.84;;;8.23;100.00
23164;BME280;31429;42.674;23.350;2024-02-26T00:49:34;94217.38;;;8.23;100.00
23164;BME280;31429;42.674;23.350;2024-02-26T00:50:35;94211.34;;;8.27;100.00
23164;BME280;31429;42.674;23.350;2024-02-26T00:51:36;94204.34;;;8.32;100.00
23164;BME280;31429;42.674;23.350;2024-02-26T00:52:37;94209.41;;;8.34;100.00
23164;BME280;31429;42.674;23.350;2024-02-26T00:53:37;94214.31;;;8.38;100.00
23164;BME280;31429;42.674;23.350;2024-02-26T00:54:38;94209.16;;;8.40;100.00
23164;BME280;31429;42.674;23.350;2024-02-26T00:55:40;94216.19;;;8.33;100.00
23164;BME280;31429;42.674;23.350;2024-02-26T00:56:41;94213.69;;;8.32;100.00
23164;BME280;31429;42.674;23.350;2024-02-26T00:57:42;94218.09;;;8.27;100.00
23164;BME280;31429;42.674;23.350;2024-02-26T00:58:43;94216.63;;;8.21;100.00
23164;BME280;31429;42.674;23.350;2024-02-26T00:59:43;94213.66;;;8.10;100.00
23164;BME280;31429;42.674;23.350;2024-02-26T01:00:44;94209.72;;;8.01;100.00
23164;BME280;31429;42.674;23.350;2024-02-26T01:01:45;94215.00;;;7.97;100.00
23164;BME280;31429;42.674;23.350;2024-02-26T01:02:46;94211.53;;;7.98;100.00
23164;BME280;31429;42.674;23.350;2024-02-26T01:03:47;94211.44;;;8.01;100.00
23164;BME280;31429;42.674;23.350;2024-02-26T01:04:47;94212.47;;;7.95;100.00
23164;BME280;31429;42.674;23.350;2024-02-26T01:05:48;94211.59;;;7.96;100.00
23164;BME280;31429;42.674;23.350;2024-02-26T01:06:49;94213.22;;;7.99;100.00
23164;BME280;31429;42.674;23.350;2024-02-26T01:07:50;94208.97;;;7.99;100.00
23164;BME280;31429;42.674;23.350;2024-02-26T01:08:50;94201.25;;;8.01;100.00
23164;BME280;31429;42.674;23.350;2024-02-26T01:09:51;94203.31;;;7.91;100.00
23164;BME280;31429;42.674;23.350;2024-02-26T01:10:53;94199.84;;;7.94;100.00
23164;BME280;31429;42.674;23.350;2024-02-26T01:11:54;94208.03;;;8.00;100.00
23164;BME280;31429;42.674;23.350;2024-02-26T01:12:55;94206.06;;;8.08;100.00
23164;BME280;31429;42.674;23.350;2024-02-26T01:13:56;94198.19;;;8.15;100.00
23164;BME280;31429;42.674;23.350;2024-02-26T01:14:57;94202.63;;;8.09;100.00
23164;BME280;31429;42.674;23.350;2024-02-26T01:15:57;94202.69;;;8.08;100.00
23164;BME280;31429;42.674;23.350;2024-02-26T01:16:58;94202.91;;;8.02;100.00
23164;BME280;31429;42.674;23.350;2024-02-26T01:17:59;94203.88;;;7.99;100.00
23164;BME280;31429;42.674;23.350;2024-02-26T01:19:00;94203.75;;;8.02;100.00
23164;BME280;31429;42.674;23.350;2024-02-26T01:20:00;94204.63;;;8.01;100.00
23164;BME280;31429;42.674;23.350;2024-02-26T01:21:01;94205.38;;;8.03;100.00
23164;BME280;31429;42.674;23.350;2024-02-26T01:22:02;94200.25;;;8.05;100.00
23164;BME280;31429;42.674;23.350;2024-02-26T01:23:03;94206.22;;;8.04;100.00
23164;BME280;31429;42.674;23.350;2024-02-26T01:24:05;94206.19;;;8.05;100.00
23164;BME280;31429;42.674;23.350;2024-02-26T01:25:06;94202.63;;;8.09;100.00
23164;BME280;31429;42.674;23.350;2024-02-26T01:26:09;94198.97;;;8.17;100.00
23164;BME280;31429;42.674;23.350;2024-02-26T01:27:10;94199.63;;;8.22;100.00
23164;BME280;31429;42.674;23.350;2024-02-26T01:28:11;94197.84;;;8.24;100.00
23164;BME280;31429;42.674;23.350;2024-02-26T01:29:11;94192.81;;;8.22;100.00
23164;BME280;31429;42.674;23.350;2024-02-26T01:30:12;94199.75;;;8.19;100.00
23164;BME280;31429;42.674;23.350;2024-02-26T01:31:16;94198.31;;;8.12;100.00
23164;BME280;31429;42.674;23.350;2024-02-26T01:32:17;94201.00;;;8.08;100.00
23164;BME280;31429;42.674;23.350;2024-02-26T01:33:17;94204.28;;;8.10;100.00
23164;BME280;31429;42.674;23.350;2024-02-26T01:34:19;94197.75;;;8.03;100.00
23164;BME280;31429;42.674;23.350;2024-02-26T01:35:19;94202.25;;;7.97;100.00
23164;BME280;31429;42.674;23.350;2024-02-26T01:36:20;94202.53;;;7.89;100.00
23164;BME280;31429;42.674;23.350;2024-02-26T01:37:21;94196.78;;;7.84;100.00
23164;BME280;31429;42.674;23.350;2024-02-26T01:38:22;94192.63;;;7.82;100.00
23164;BME280;31429;42.674;23.350;2024-02-26T01:39:23;94193.56;;;7.79;100.00
23164;BME280;31429;42.674;23.350;2024-02-26T01:40:26;94197.91;;;7.77;100.00
23164;BME280;31429;42.674;23.350;2024-02-26T01:41:28;94191.97;;;7.77;100.00
23164;BME280;31429;42.674;23.350;2024-02-26T01:42:29;94186.06;;;7.76;100.00
23164;BME280;31429;42.674;23.350;2024-02-26T01:43:50;94189.53;;;7.74;100.00
23164;BME280;31429;42.674;23.350;2024-02-26T01:44:51;94187.00;;;7.74;100.00
23164;BME280;31429;42.674;23.350;2024-02-26T01:45:51;94197.22;;;7.72;100.00
23164;BME280;31429;42.674;23.350;2024-02-26T01:46:52;94186.28;;;7.70;100.00
23164;BME280;31429;42.674;23.350;2024-02-26T01:47:54;94184.59;;;7.69;100.00
23164;BME280;31429;42.674;23.350;2024-02-26T01:48:56;94181.94;;;7.72;100.00
23164;BME280;31429;42.674;23.350;2024-02-26T01:49:57;94179.91;;;7.82;100.00
23164;BME280;31429;42.674;23.350;2024-02-26T01:50:58;94187.00;;;7.97;100.00
23164;BME280;31429;42.674;23.350;2024-02-26T01:51:59;94174.81;;;8.05;100.00
23164;BME280;31429;42.674;23.350;2024-02-26T01:53:00;94179.06;;;8.04;100.00
23164;BME280;31429;42.674;23.350;2024-02-26T01:54:02;94181.59;;;8.04;100.00
23164;BME280;31429;42.674;23.350;2024-02-26T01:55:04;94178.84;;;8.10;100.00
23164;BME280;31429;42.674;23.350;2024-02-26T01:56:05;94182.03;;;8.16;100.00
23164;BME280;31429;42.674;23.350;2024-02-26T01:57:08;94175.28;;;8.15;100.00
23164;BME280;31429;42.674;23.350;2024-02-26T01:58:09;94177.97;;;8.12;100.00
23164;BME280;31429;42.674;23.350;2024-02-26T01:59:10;94178.84;;;8.10;100.00
23164;BME280;31429;42.674;23.350;2024-02-26T02:00:12;94181.16;;;8.17;100.00
23164;BME280;31429;42.674;23.350;2024-02-26T02:01:13;94174.59;;;8.11;100.00
23164;BME280;31429;42.674;23.350;2024-02-26T02:02:16;94181.59;;;8.04;100.00
23164;BME280;31429;42.674;23.350;2024-02-26T02:03:17;94183.38;;;8.02;100.00
23164;BME280;31429;42.674;23.350;2024-02-26T02:04:18;94181.72;;;8.23;100.00
23164;BME280;31429;42.674;23.350;2024-02-26T02:05:20;94184.69;;;8.13;100.00
23164;BME280;31429;42.674;23.350;2024-02-26T02:06:22;94183.53;;;7.98;100.00
23164;BME280;31429;42.674;23.350;2024-02-26T02:07:23;94189.81;;;7.89;100.00
23164;BME280;31429;42.674;23.350;2024-02-26T02:08:25;94184.94;;;7.83;100.00
23164;BME280;31429;42.674;23.350;2024-02-26T02:09:26;94184.06;;;7.84;100.00
23164;BME280;31429;42.674;23.350;2024-02-26T02:10:28;94184.06;;;7.84;100.00
23164;BME280;31429;42.674;23.350;2024-02-26T02:11:28;94186.66;;;7.83;100.00
23164;BME280;31429;42.674;23.350;2024-02-26T02:12:51;94178.34;;;7.78;100.00
23164;BME280;31429;42.674;23.350;2024-02-26T02:13:52;94180.09;;;7.77;100.00
23164;BME280;31429;42.674;23.350;2024-02-26T02:14:52;94179.16;;;7.80;100.00
23164;BME280;31429;42.674;23.350;2024-02-26T02:15:53;94177.28;;;7.83;100.00
23164;BME280;31429;42.674;23.350;2024-02-26T02:16:54;94178.97;;;7.84;100.00
23164;BME280;31429;42.674;23.350;2024-02-26T02:17:55;94177.97;;;7.88;100.00
23164;BME280;31429;42.674;23.350;2024-02-26T02:18:55;94171.13;;;7.90;100.00
23164;BME280;31429;42.674;23.350;2024-02-26T02:19:56;94173.75;;;7.87;100.00
23164;BME280;31429;42.674;23.350;2024-02-26T02:20:59;94175.75;;;7.79;100.00
23164;BME280;31429;42.674;23.350;2024-02-26T02:22:00;94179.28;;;7.75;100.00
23164;BME280;31429;42.674;23.350;2024-02-26T02:23:01;94175.94;;;7.75;100.00
23164;BME280;31429;42.674;23.350;2024-02-26T02:24:02;94177.59;;;7.76;100.00
23164;BME280;31429;42.674;23.350;2024-02-26T02:25:03;94173.34;;;7.76;100.00
23164;BME280;31429;42.674;23.350;2024-02-26T02:26:04;94185.19;;;7.77;100.00
23164;BME280;31429;42.674;23.350;2024-02-26T02:27:05;94187.00;;;7.74;100.00
23164;BME280;31429;42.674;23.350;2024-02-26T02:28:06;94180.19;;;7.74;100.00
23164;BME280;31429;42.674;23.350;2024-02-26T02:29:07;94181.81;;;7.77;100.00
23164;BME280;31429;42.674;23.350;2024-02-26T02:30:11;94176.72;;;7.77;100.00
23164;BME280;31429;42.674;23.350;2024-02-26T02:31:12;94168.06;;;7.81;100.00
23164;BME280;31429;42.674;23.350;2024-02-26T02:32:14;94169.63;;;7.85;100.00
23164;BME280;31429;42.674;23.350;2024-02-26T02:33:15;94169.63;;;7.85;100.00
23164;BME280;31429;42.674;23.350;2024-02-26T02:34:16;94178.03;;;7.87;100.00
23164;BME280;31429;42.674;23.350;2024-02-26T02:35:17;94171.22;;;7.87;100.00
23164;BME280;31429;42.674;23.350;2024-02-26T02:36:19;94182.16;;;7.89;100.00
23164;BME280;31429;42.674;23.350;2024-02-26T02:37:20;94171.19;;;7.89;100.00
23164;BME280;31429;42.674;23.350;2024-02-26T02:38:21;94168.69;;;7.87;100.00
23164;BME280;31429;42.674;23.350;2024-02-26T02:39:21;94170.47;;;7.85;100.00
23164;BME280;31429;42.674;23.350;2024-02-26T02:40:22;94175.47;;;7.87;100.00
23164;BME280;31429;42.674;23.350;2024-02-26T02:41:23;94178.75;;;7.90;100.00
23164;BME280;31429;42.674;23.350;2024-02-26T02:42:24;94179.28;;;7.98;100.00
23164;BME280;31429;42.674;23.350;2024-02-26T02:43:25;94175.66;;;8.05;100.00
23164;BME280;31429;42.674;23.350;2024-02-26T02:44:26;94174.81;;;8.05;100.00
23164;BME280;31429;42.674;23.350;2024-02-26T02:45:27;94174.03;;;8.03;100.00
23164;BME280;31429;42.674;23.350;2024-02-26T02:46:28;94173.91;;;8.06;100.00
23164;BME280;31429;42.674;23.350;2024-02-26T02:47:28;94174.59;;;8.11;100.00
23164;BME280;31429;42.674;23.350;2024-02-26T02:48:29;94181.09;;;8.18;100.00
23164;BME280;31429;42.674;23.350;2024-02-26T02:49:30;94176.84;;;8.19;100.00
23164;BME280;31429;42.674;23.350;2024-02-26T02:50:30;94178.44;;;8.21;100.00
23164;BME280;31429;42.674;23.350;2024-02-26T02:51:33;94180.09;;;8.22;100.00
23164;BME280;31429;42.674;23.350;2024-02-26T02:52:33;94181.69;;;8.25;100.00
23164;BME280;31429;42.674;23.350;2024-02-26T02:53:34;94182.56;;;8.24;100.00
23164;BME280;31429;42.674;23.350;2024-02-26T02:54:35;94183.59;;;8.20;100.00
23164;BME280;31429;42.674;23.350;2024-02-26T02:55:37;94188.00;;;8.15;100.00
23164;BME280;31429;42.674;23.350;2024-02-26T02:56:38;94187.34;;;8.09;100.00
23164;BME280;31429;42.674;23.350;2024-02-26T02:57:39;94187.53;;;8.05;100.00
23164;BME280;31429;42.674;23.350;2024-02-26T02:58:41;94191.06;;;8.01;100.00
23164;BME280;31429;42.674;23.350;2024-02-26T02:59:42;94190.38;;;7.97;100.00
23164;BME280;31429;42.674;23.350;2024-02-26T03:00:43;94193.13;;;7.91;100.00
23164;BME280;31429;42.674;23.350;2024-02-26T03:01:43;94192.41;;;7.88;100.00
23164;BME280;31429;42.674;23.350;2024-02-26T03:02:44;94196.66;;;7.87;100.00
23164;BME280;31429;42.674;23.350;2024-02-26T03:03:45;94189.97;;;7.85;100.00
23164;BME280;31429;42.674;23.350;2024-02-26T03:04:46;94199.09;;;7.90;100.00
23164;BME280;31429;42.674;23.350;2024-02-26T03:05:47;94190.59;;;7.91;100.00
23164;BME280;31429;42.674;23.350;2024-02-26T03:06:49;94195.47;;;7.97;100.00
23164;BME280;31429;42.674;23.350;2024-02-26T03:07:50;94191.91;;;8.01;100.00
23164;BME280;31429;42.674;23.350;2024-02-26T03:08:50;94190.22;;;8.00;100.00
23164;BME280;31429;42.674;23.350;2024-02-26T03:09:51;94195.22;;;8.03;100.00
23164;BME280;31429;42.674;23.350;2024-02-26T03:10:52;94201.03;;;8.07;100.00
23164;BME280;31429;42.674;23.350;2024-02-26T03:11:53;94198.31;;;8.12;100.00
23164;BME280;31429;42.674;23.350;2024-02-26T03:12:53;94199.09;;;8.14;100.00
23164;BME280;31429;42.674;23.350;2024-02-26T03:13:54;94198.16;;;8.16;100.00
23164;BME280;31429;42.674;23.350;2024-02-26T03:14:55;94197.00;;;8.23;100.00
23164;BME280;31429;42.674;23.350;2024-02-26T03:15:57;94195.47;;;8.19;100.00
23164;BME280;31429;42.674;23.350;2024-02-26T03:16:57;94193.09;;;8.15;100.00
23164;BME280;31429;42.674;23.350;2024-02-26T03:17:58;94192.28;;;8.14;100.00
23164;BME280;31429;42.674;23.350;2024-02-26T03:18:59;94187.00;;;8.19;100.00
23164;BME280;31429;42.674;23.350;2024-02-26T03:20:00;94190.41;;;8.19;100.00
23164;BME280;31429;42.674;23.350;2024-02-26T03:21:00;94188.00;;;8.15;100.00
23164;BME280;31429;42.674;23.350;2024-02-26T03:22:03;94193.88;;;8.17;100.00
23164;BME280;31429;42.674;23.350;2024-02-26T03:23:04;94187.09;;;8.17;100.00
23164;BME280;31429;42.674;23.350;2024-02-26T03:24:05;94186.06;;;8.21;100.00
23164;BME280;31429;42.674;23.350;2024-02-26T03:25:07;94187.09;;;8.17;100.00
23164;BME280;31429;42.674;23.350;2024-02-26T03:26:08;94182.16;;;8.13;100.00
23164;BME280;31429;42.674;23.350;2024-02-26T03:27:14;94177.34;;;8.05;100.00
23164;BME280;31429;42.674;23.350;2024-02-26T03:28:14;94178.44;;;7.98;100.00
23164;BME280;31429;42.674;23.350;2024-02-26T03:29:16;94177.66;;;7.97;100.00
23164;BME280;31429;42.674;23.350;2024-02-26T03:30:17;94173.31;;;7.99;100.00
23164;BME280;31429;42.674;23.350;2024-02-26T03:31:17;94170.47;;;8.07;100.00
23164;BME280;31429;42.674;23.350;2024-02-26T03:32:18;94175.34;;;8.13;100.00
23164;BME280;31429;42.674;23.350;2024-02-26T03:33:19;94170.03;;;8.19;100.00
23164;BME280;31429;42.674;23.350;2024-02-26T03:34:20;94173.34;;;8.21;100.00
23164;BME280;31429;42.674;23.350;2024-02-26T03:35:20;94173.34;;;8.21;100.00
23164;BME280;31429;42.674;23.350;2024-02-26T03:36:21;94174.41;;;8.16;100.00
23164;BME280;31429;42.674;23.350;2024-02-26T03:37:23;94173.63;;;8.14;100.00
23164;BME280;31429;42.674;23.350;2024-02-26T03:38:24;94169.41;;;8.13;100.00
23164;BME280;31429;42.674;23.350;2024-02-26T03:39:25;94173.53;;;8.17;100.00
23164;BME280;31429;42.674;23.350;2024-02-26T03:40:26;94173.56;;;8.15;100.00
23164;BME280;31429;42.674;23.350;2024-02-26T03:41:27;94170.13;;;8.16;100.00
23164;BME280;31429;42.674;23.350;2024-02-26T03:42:27;94174.59;;;8.11;100.00
23164;BME280;31429;42.674;23.350;2024-02-26T03:43:28;94173.75;;;8.10;100.00
23164;BME280;31429;42.674;23.350;2024-02-26T03:44:29;94172.88;;;8.12;100.00
23164;BME280;31429;42.674;23.350;2024-02-26T03:45:30;94175.56;;;8.07;100.00
23164;BME280;31429;42.674;23.350;2024-02-26T03:46:30;94170.78;;;7.99;100.00
23164;BME280;31429;42.674;23.350;2024-02-26T03:47:31;94171.00;;;7.93;100.00
23164;BME280;31429;42.674;23.350;2024-02-26T03:48:32;94173.72;;;7.89;100.00
23164;BME280;31429;42.674;23.350;2024-02-26T03:49:33;94175.44;;;7.88;100.00
23164;BME280;31429;42.674;23.350;2024-02-26T03:50:33;94166.91;;;7.89;100.00
23164;BME280;31429;42.674;23.350;2024-02-26T03:51:35;94175.22;;;7.94;100.00
23164;BME280;31429;42.674;23.350;2024-02-26T03:52:37;94166.03;;;7.90;100.00
23164;BME280;31429;42.674;23.350;2024-02-26T03:53:38;94165.28;;;7.87;100.00
23164;BME280;31429;42.674;23.350;2024-02-26T03:54:38;94168.06;;;7.81;100.00
23164;BME280;31429;42.674;23.350;2024-02-26T03:55:39;94170.03;;;7.74;100.00
23164;BME280;31429;42.674;23.350;2024-02-26T03:56:42;94170.59;;;7.81;100.00
23164;BME280;31429;42.674;23.350;2024-02-26T03:57:42;94168.91;;;7.81;100.00
23164;BME280;31429;42.674;23.350;2024-02-26T03:58:43;94161.03;;;7.87;100.00
23164;BME280;31429;42.674;23.350;2024-02-26T03:59:45;94163.88;;;7.80;100.00
23164;BME280;31429;42.674;23.350;2024-02-26T04:00:45;94167.91;;;7.62;100.00
23164;BME280;31429;42.674;23.350;2024-02-26T04:01:47;94160.47;;;7.58;100.00
23164;BME280;31429;42.674;23.350;2024-02-26T04:02:48;94162.94;;;7.59;100.00
23164;BME280;31429;42.674;23.350;2024-02-26T04:03:49;94167.81;;;7.65;100.00
23164;BME280;31429;42.674;23.350;2024-02-26T04:04:50;94166.75;;;7.71;100.00
23164;BME280;31429;42.674;23.350;2024-02-26T04:05:51;94164.81;;;7.77;100.00
23164;BME280;31429;42.674;23.350;2024-02-26T04:06:52;94156.81;;;7.86;100.00
23164;BME280;31429;42.674;23.350;2024-02-26T04:07:54;94156.56;;;7.94;100.00
23164;BME280;31429;42.674;23.350;2024-02-26T04:08:55;94160.94;;;7.90;100.00
23164;BME280;31429;42.674;23.350;2024-02-26T04:09:56;94149.16;;;7.88;100.00
23164;BME280;31429;42.674;23.350;2024-02-26T04:10:56;94150.09;;;7.85;100.00
23164;BME280;31429;42.674;23.350;2024-02-26T04:11:57;94158.38;;;7.90;100.00
23164;BME280;31429;42.674;23.350;2024-02-26T04:12:58;94164.94;;;7.97;100.00
23164;BME280;31429;42.674;23.350;2024-02-26T04:13:59;94159.22;;;7.91;100.00
23164;BME280;31429;42.674;23.350;2024-02-26T04:14:59;94161.16;;;7.84;100.00
23164;BME280;31429;42.674;23.350;2024-02-26T04:16:00;94155.31;;;7.82;100.00
23164;BME280;31429;42.674;23.350;2024-02-26T04:17:04;94157.22;;;7.76;100.00
23164;BME280;31429;42.674;23.350;2024-02-26T04:18:05;94150.66;;;7.70;100.00
23164;BME280;31429;42.674;23.350;2024-02-26T04:19:06;94154.34;;;7.62;100.00
23164;BME280;31429;42.674;23.350;2024-02-26T04:20:12;94148.44;;;7.61;100.00
23164;BME280;31429;42.674;23.350;2024-02-26T04:21:14;94149.88;;;7.68;100.00
23164;BME280;31429;42.674;23.350;2024-02-26T04:22:14;94150.38;;;7.78;100.00
23164;BME280;31429;42.674;23.350;2024-02-26T04:23:16;94144.09;;;7.86;100.00
23164;BME280;31429;42.674;23.350;2024-02-26T04:24:17;94143.13;;;7.90;100.00
23164;BME280;31429;42.674;23.350;2024-02-26T04:25:18;94148.22;;;7.90;100.00
23164;BME280;31429;42.674;23.350;2024-02-26T04:26:19;94146.59;;;7.88;100.00
23164;BME280;31429;42.674;23.350;2024-02-26T04:27:20;94147.44;;;7.88;100.00
23164;BME280;31429;42.674;23.350;2024-02-26T04:28:21;94138.03;;;7.90;100.00
23164;BME280;31429;42.674;23.350;2024-02-26T04:29:22;94135.41;;;7.92;100.00
23164;BME280;31429;42.674;23.350;2024-02-26T04:30:22;94143.78;;;7.95;100.00
23164;BME280;31429;42.674;23.350;2024-02-26T04:31:23;94138.75;;;7.94;100.00
23164;BME280;31429;42.674;23.350;2024-02-26T04:32:24;94145.56;;;7.93;100.00
23164;BME280;31429;42.674;23.350;2024-02-26T04:33:25;94138.75;;;7.94;100.00
23164;BME280;31429;42.674;23.350;2024-02-26T04:34:25;94145.38;;;7.98;100.00
23164;BME280;31429;42.674;23.350;2024-02-26T04:35:27;94147.09;;;7.97;100.00
23164;BME280;31429;42.674;23.350;2024-02-26T04:36:27;94145.56;;;7.93;100.00
23164;BME280;31429;42.674;23.350;2024-02-26T04:37:28;94147.97;;;7.96;100.00
23164;BME280;31429;42.674;23.350;2024-02-26T04:38:33;94154.56;;;8.02;100.00
23164;BME280;31429;42.674;23.350;2024-02-26T04:39:34;94156.16;;;8.04;100.00
23164;BME280;31429;42.674;23.350;2024-02-26T04:40:35;94156.16;;;8.04;100.00
23164;BME280;31429;42.674;23.350;2024-02-26T04:41:36;94156.91;;;8.06;100.00
23164;BME280;31429;42.674;23.350;2024-02-26T04:42:37;94151.91;;;8.05;100.00
23164;BME280;31429;42.674;23.350;2024-02-26T04:43:38;94156.38;;;7.98;100.00
23164;BME280;31429;42.674;23.350;2024-02-26T04:44:44;94158.19;;;7.95;100.00
23164;BME280;31429;42.674;23.350;2024-02-26T04:45:45;94154.75;;;7.97;100.00
23164;BME280;31429;42.674;23.350;2024-02-26T04:46:46;94160.75;;;7.95;100.00
23164;BME280;31429;42.674;23.350;2024-02-26T04:47:47;94159.84;;;7.97;100.00
23164;BME280;31429;42.674;23.350;2024-02-26T04:48:47;94158.06;;;7.99;100.00
23164;BME280;31429;42.674;23.350;2024-02-26T04:49:49;94150.41;;;7.99;100.00
23164;BME280;31429;42.674;23.350;2024-02-26T04:50:50;94159.03;;;7.95;100.00
23164;BME280;31429;42.674;23.350;2024-02-26T04:51:50;94164.13;;;7.95;100.00
23164;BME280;31429;42.674;23.350;2024-02-26T04:52:51;94158.94;;;7.98;100.00
23164;BME280;31429;42.674;23.350;2024-02-26T04:53:53;94169.94;;;7.99;100.00
23164;BME280;31429;42.674;23.350;2024-02-26T04:54:54;94162.38;;;7.97;100.00
23164;BME280;31429;42.674;23.350;2024-02-26T04:55:55;94166.53;;;8.00;100.00
23164;BME280;31429;42.674;23.350;2024-02-26T04:56:55;94168.00;;;8.05;100.00
23164;BME280;31429;42.674;23.350;2024-02-26T04:57:56;94163.78;;;8.04;100.00
23164;BME280;31429;42.674;23.350;2024-02-26T04:58:57;94156.91;;;8.06;100.00
23164;BME280;31429;42.674;23.350;2024-02-26T04:59:58;94154.75;;;7.97;100.00
23164;BME280;31429;42.674;23.350;2024-02-26T05:00:58;94164.13;;;7.95;100.00
23164;BME280;31429;42.674;23.350;2024-02-26T05:01:59;94158.16;;;7.96;100.00
23164;BME280;31429;42.674;23.350;2024-02-26T05:03:00;94173.38;;;7.98;100.00
23164;BME280;31429;42.674;23.350;2024-02-26T05:04:00;94163.06;;;8.01;100.00
23164;BME280;31429;42.674;23.350;2024-02-26T05:05:01;94171.34;;;8.06;100.00
23164;BME280;31429;42.674;23.350;2024-02-26T05:06:03;94170.31;;;8.12;100.00
23164;BME280;31429;42.674;23.350;2024-02-26T05:07:04;94167.41;;;8.21;100.00
23164;BME280;31429;42.674;23.350;2024-02-26T05:08:05;94175.94;;;8.20;100.00
23164;BME280;31429;42.674;23.350;2024-02-26T05:09:07;94177.78;;;8.16;100.00
23164;BME280;31429;42.674;23.350;2024-02-26T05:10:09;94174.41;;;8.16;100.00
23164;BME280;31429;42.674;23.350;2024-02-26T05:11:09;94174.59;;;8.11;100.00
23164;BME280;31429;42.674;23.350;2024-02-26T05:12:10;94183.94;;;8.10;100.00
23164;BME280;31429;42.674;23.350;2024-02-26T05:13:11;94175.41;;;8.12;100.00
23164;BME280;31429;42.674;23.350;2024-02-26T05:14:12;94177.66;;;8.19;100.00
23164;BME280;31429;42.674;23.350;2024-02-26T05:15:12;94189.44;;;8.22;100.00
23164;BME280;31429;42.674;23.350;2024-02-26T05:16:18;94198.69;;;8.24;100.00
23164;BME280;31429;42.674;23.350;2024-02-26T05:17:21;94191.81;;;8.26;100.00
23164;BME280;31429;42.674;23.350;2024-02-26T05:18:22;94203.69;;;8.27;100.00
23164;BME280;31429;42.674;23.350;2024-02-26T05:19:23;94205.38;;;8.28;100.00
23164;BME280;31429;42.674;23.350;2024-02-26T05:20:24;94202.81;;;8.27;100.00